sensor_id;sensor_type;location;lat;lon;timestamp;P1;durP1;ratioP1;P2;durP2;ratioP2
78205;SDS011;67480;48.920;12.880;2023-02-28T00:00:19;6.40;;;5.00;;
78205;SDS011;67480;48.920;12.880;2023-02-28T00:02:46;7.95;;;5.10;;
78205;SDS011;67480;48.920;12.880;2023-02-28T00:05:12;6.60;;;4.63;;
78205;SDS011;67480;48.920;12.880;2023-02-28T00:07:39;6.60;;;4.65;;
78205;SDS011;67480;48.920;12.880;2023-02-28T00:10:05;7.13;;;4.90;;
78205;SDS011;67480;48.920;12.880;2023-02-28T00:12:32;6.57;;;4.85;;
78205;SDS011;67480;48.920;12.880;2023-02-28T00:15:02;5.60;;;4.85;;
78205;SDS011;67480;48.920;12.880;2023-02-28T00:17:29;5.22;;;4.40;;
78205;SDS011;67480;48.920;12.880;2023-02-28T00:19:55;5.57;;;4.97;;
78205;SDS011;67480;48.920;12.880;2023-02-28T00:22:20;5.10;;;4.57;;
78205;SDS011;67480;48.920;12.880;2023-02-28T00:24:46;6.30;;;4.80;;
78205;SDS011;67480;48.920;12.880;2023-02-28T00:27:12;6.43;;;5.10;;
78205;SDS011;67480;48.920;12.880;2023-02-28T00:29:38;5.88;;;4.95;;
78205;SDS011;67480;48.920;12.880;2023-02-28T00:32:04;8.38;;;5.18;;
78205;SDS011;67480;48.920;12.880;2023-02-28T00:34:30;5.70;;;4.97;;
78205;SDS011;67480;48.920;12.880;2023-02-28T00:36:56;5.28;;;4.53;;
78205;SDS011;67480;48.920;12.880;2023-02-28T00:39:21;7.03;;;4.97;;
78205;SDS011;67480;48.920;12.880;2023-02-28T00:41:47;6.53;;;4.93;;
78205;SDS011;67480;48.920;12.880;2023-02-28T00:44:12;6.85;;;4.95;;
78205;SDS011;67480;48.920;12.880;2023-02-28T00:46:37;6.65;;;4.80;;
78205;SDS011;67480;48.920;12.880;2023-02-28T00:49:03;7.43;;;5.07;;
78205;SDS011;67480;48.920;12.880;2023-02-28T00:51:28;5.45;;;4.50;;
78205;SDS011;67480;48.920;12.880;2023-02-28T00:53:53;5.15;;;4.65;;
78205;SDS011;67480;48.920;12.880;2023-02-28T00:56:19;6.80;;;5.38;;
78205;SDS011;67480;48.920;12.880;2023-02-28T00:58:45;6.75;;;5.35;;
78205;SDS011;67480;48.920;12.880;2023-02-28T01:01:10;6.50;;;5.15;;
78205;SDS011;67480;48.920;12.880;2023-02-28T01:03:36;9.40;;;6.93;;
78205;SDS011;67480;48.920;12.880;2023-02-28T01:06:01;8.25;;;6.60;;
78205;SDS011;67480;48.920;12.880;2023-02-28T01:08:27;8.27;;;5.88;;
78205;SDS011;67480;48.920;12.880;2023-02-28T01:10:53;7.78;;;5.65;;
78205;SDS011;67480;48.920;12.880;2023-02-28T01:13:18;7.18;;;5.95;;
78205;SDS011;67480;48.920;12.880;2023-02-28T01:15:51;6.38;;;5.13;;
78205;SDS011;67480;48.920;12.880;2023-02-28T01:18:20;6.75;;;5.32;;
78205;SDS011;67480;48.920;12.880;2023-02-28T01:20:46;6.72;;;5.10;;
78205;SDS011;67480;48.920;12.880;2023-02-28T01:23:11;6.50;;;5.70;;
78205;SDS011;67480;48.920;12.880;2023-02-28T01:25:38;7.78;;;5.65;;
78205;SDS011;67480;48.920;12.880;2023-02-28T01:28:04;8.07;;;6.00;;
78205;SDS011;67480;48.920;12.880;2023-02-28T01:30:30;7.25;;;5.85;;
78205;SDS011;67480;48.920;12.880;2023-02-28T01:32:55;8.23;;;5.78;;
78205;SDS011;67480;48.920;12.880;2023-02-28T01:35:21;7.75;;;5.93;;
78205;SDS011;67480;48.920;12.880;2023-02-28T01:37:46;8.07;;;5.40;;
78205;SDS011;67480;48.920;12.880;2023-02-28T01:40:12;7.47;;;5.65;;
78205;SDS011;67480;48.920;12.880;2023-02-28T01:42:37;7.55;;;5.75;;
78205;SDS011;67480;48.920;12.880;2023-02-28T01:45:06;7.55;;;5.82;;
78205;SDS011;67480;48.920;12.880;2023-02-28T01:47:33;8.88;;;6.13;;
78205;SDS011;67480;48.920;12.880;2023-02-28T01:50:02;9.10;;;6.22;;
78205;SDS011;67480;48.920;12.880;2023-02-28T01:52:30;7.45;;;6.28;;
78205;SDS011;67480;48.920;12.880;2023-02-28T01:54:57;8.15;;;6.25;;
78205;SDS011;67480;48.920;12.880;2023-02-28T01:57:26;8.77;;;6.38;;
78205;SDS011;67480;48.920;12.880;2023-02-28T02:00:00;10.00;;;6.65;;
78205;SDS011;67480;48.920;12.880;2023-02-28T02:02:29;9.32;;;6.47;;
78205;SDS011;67480;48.920;12.880;2023-02-28T02:05:03;7.43;;;6.57;;
78205;SDS011;67480;48.920;12.880;2023-02-28T02:07:31;7.93;;;5.85;;
78205;SDS011;67480;48.920;12.880;2023-02-28T02:10:05;9.75;;;7.38;;
78205;SDS011;67480;48.920;12.880;2023-02-28T02:23:54;9.07;;;6.57;;
78205;SDS011;67480;48.920;12.880;2023-02-28T02:30:00;9.70;;;6.85;;
78205;SDS011;67480;48.920;12.880;2023-02-28T02:43:35;11.35;;;7.38;;
78205;SDS011;67480;48.920;12.880;2023-02-28T02:46:13;9.43;;;7.50;;
78205;SDS011;67480;48.920;12.880;2023-02-28T02:48:42;9.35;;;6.57;;
78205;SDS011;67480;48.920;12.880;2023-02-28T02:51:14;9.02;;;7.53;;
78205;SDS011;67480;48.920;12.880;2023-02-28T02:53:44;12.13;;;9.10;;
78205;SDS011;67480;48.920;12.880;2023-02-28T02:56:15;10.18;;;8.10;;
78205;SDS011;67480;48.920;12.880;2023-02-28T02:58:44;9.93;;;7.53;;
78205;SDS011;67480;48.920;12.880;2023-02-28T03:01:15;10.40;;;7.90;;
78205;SDS011;67480;48.920;12.880;2023-02-28T03:03:52;9.85;;;7.18;;
78205;SDS011;67480;48.920;12.880;2023-02-28T03:06:20;9.40;;;7.55;;
78205;SDS011;67480;48.920;12.880;2023-02-28T03:08:45;8.77;;;6.75;;
78205;SDS011;67480;48.920;12.880;2023-02-28T03:11:12;11.43;;;8.15;;
78205;SDS011;67480;48.920;12.880;2023-02-28T03:24:32;9.82;;;7.50;;
78205;SDS011;67480;48.920;12.880;2023-02-28T03:27:11;9.82;;;7.20;;
78205;SDS011;67480;48.920;12.880;2023-02-28T03:29:47;11.77;;;7.28;;
78205;SDS011;67480;48.920;12.880;2023-02-28T03:35:10;13.82;;;9.93;;
78205;SDS011;67480;48.920;12.880;2023-02-28T03:37:47;12.57;;;7.70;;
78205;SDS011;67480;48.920;12.880;2023-02-28T03:40:34;10.70;;;7.63;;
78205;SDS011;67480;48.920;12.880;2023-02-28T03:43:04;8.38;;;6.32;;
78205;SDS011;67480;48.920;12.880;2023-02-28T03:45:35;10.93;;;8.13;;
78205;SDS011;67480;48.920;12.880;2023-02-28T03:48:04;9.07;;;7.10;;
78205;SDS011;67480;48.920;12.880;2023-02-28T03:50:35;12.10;;;8.18;;
78205;SDS011;67480;48.920;12.880;2023-02-28T03:53:18;9.10;;;6.88;;
78205;SDS011;67480;48.920;12.880;2023-02-28T03:58:22;10.85;;;7.22;;
78205;SDS011;67480;48.920;12.880;2023-02-28T04:00:51;8.73;;;7.10;;
78205;SDS011;67480;48.920;12.880;2023-02-28T04:03:22;12.82;;;7.78;;
78205;SDS011;67480;48.920;12.880;2023-02-28T04:05:52;11.50;;;7.82;;
78205;SDS011;67480;48.920;12.880;2023-02-28T04:08:19;10.35;;;7.32;;
78205;SDS011;67480;48.920;12.880;2023-02-28T04:10:46;11.52;;;7.93;;
78205;SDS011;67480;48.920;12.880;2023-02-28T04:13:18;11.45;;;8.30;;
78205;SDS011;67480;48.920;12.880;2023-02-28T04:15:43;11.27;;;7.75;;
78205;SDS011;67480;48.920;12.880;2023-02-28T04:18:08;11.40;;;8.23;;
78205;SDS011;67480;48.920;12.880;2023-02-28T04:20:34;10.70;;;7.28;;
78205;SDS011;67480;48.920;12.880;2023-02-28T04:22:59;11.73;;;8.10;;
78205;SDS011;67480;48.920;12.880;2023-02-28T04:25:24;11.13;;;8.05;;
78205;SDS011;67480;48.920;12.880;2023-02-28T04:27:49;13.55;;;8.98;;
78205;SDS011;67480;48.920;12.880;2023-02-28T04:30:15;10.88;;;7.90;;
78205;SDS011;67480;48.920;12.880;2023-02-28T04:32:40;10.98;;;7.97;;
78205;SDS011;67480;48.920;12.880;2023-02-28T04:35:06;11.13;;;8.10;;
78205;SDS011;67480;48.920;12.880;2023-02-28T04:37:31;14.10;;;8.52;;
78205;SDS011;67480;48.920;12.880;2023-02-28T04:40:00;11.80;;;8.43;;
78205;SDS011;67480;48.920;12.880;2023-02-28T04:42:25;19.75;;;12.55;;
78205;SDS011;67480;48.920;12.880;2023-02-28T04:44:51;11.50;;;8.18;;
78205;SDS011;67480;48.920;12.880;2023-02-28T04:47:17;13.32;;;7.70;;
78205;SDS011;67480;48.920;12.880;2023-02-28T04:49:42;14.40;;;8.93;;
78205;SDS011;67480;48.920;12.880;2023-02-28T04:52:07;11.18;;;7.43;;
78205;SDS011;67480;48.920;12.880;2023-02-28T04:54:34;18.60;;;11.70;;
78205;SDS011;67480;48.920;12.880;2023-02-28T04:57:00;12.57;;;8.98;;
78205;SDS011;67480;48.920;12.880;2023-02-28T04:59:26;17.45;;;12.82;;
78205;SDS011;67480;48.920;12.880;2023-02-28T05:01:51;11.85;;;8.93;;
78205;SDS011;67480;48.920;12.880;2023-02-28T05:04:17;12.68;;;7.95;;
78205;SDS011;67480;48.920;12.880;2023-02-28T05:06:42;12.48;;;7.90;;
78205;SDS011;67480;48.920;12.880;2023-02-28T05:09:07;10.25;;;7.32;;
78205;SDS011;67480;48.920;12.880;2023-02-28T05:11:33;10.05;;;7.88;;
78205;SDS011;67480;48.920;12.880;2023-02-28T05:14:04;11.45;;;7.57;;
78205;SDS011;67480;48.920;12.880;2023-02-28T05:16:31;11.88;;;8.48;;
78205;SDS011;67480;48.920;12.880;2023-02-28T05:18:57;13.07;;;8.43;;
78205;SDS011;67480;48.920;12.880;2023-02-28T05:21:33;10.10;;;7.82;;
78205;SDS011;67480;48.920;12.880;2023-02-28T05:24:00;12.10;;;7.95;;
78205;SDS011;67480;48.920;12.880;2023-02-28T05:26:28;11.93;;;7.53;;
78205;SDS011;67480;48.920;12.880;2023-02-28T05:28:54;12.07;;;7.45;;
78205;SDS011;67480;48.920;12.880;2023-02-28T05:31:20;11.05;;;8.00;;
78205;SDS011;67480;48.920;12.880;2023-02-28T05:33:46;11.15;;;7.47;;
78205;SDS011;67480;48.920;12.880;2023-02-28T05:36:11;11.60;;;7.35;;
78205;SDS011;67480;48.920;12.880;2023-02-28T05:38:37;23.95;;;15.38;;
78205;SDS011;67480;48.920;12.880;2023-02-28T05:41:08;17.20;;;11.73;;
78205;SDS011;67480;48.920;12.880;2023-02-28T05:43:35;11.60;;;9.10;;
78205;SDS011;67480;48.920;12.880;2023-02-28T05:46:02;11.35;;;8.13;;
78205;SDS011;67480;48.920;12.880;2023-02-28T05:48:32;11.77;;;7.50;;
78205;SDS011;67480;48.920;12.880;2023-02-28T05:50:59;10.80;;;7.95;;
78205;SDS011;67480;48.920;12.880;2023-02-28T05:53:24;9.10;;;6.30;;
78205;SDS011;67480;48.920;12.880;2023-02-28T05:55:49;10.38;;;7.05;;
78205;SDS011;67480;48.920;12.880;2023-02-28T05:58:15;12.85;;;7.35;;
78205;SDS011;67480;48.920;12.880;2023-02-28T06:00:40;9.50;;;7.15;;
78205;SDS011;67480;48.920;12.880;2023-02-28T06:03:05;9.73;;;7.07;;
78205;SDS011;67480;48.920;12.880;2023-02-28T06:05:30;11.68;;;7.20;;
78205;SDS011;67480;48.920;12.880;2023-02-28T06:07:56;13.10;;;7.40;;
78205;SDS011;67480;48.920;12.880;2023-02-28T06:10:21;11.00;;;6.30;;
78205;SDS011;67480;48.920;12.880;2023-02-28T06:12:46;9.25;;;7.00;;
78205;SDS011;67480;48.920;12.880;2023-02-28T06:15:15;9.80;;;7.20;;
78205;SDS011;67480;48.920;12.880;2023-02-28T06:17:42;10.80;;;7.03;;
78205;SDS011;67480;48.920;12.880;2023-02-28T06:20:08;10.10;;;6.78;;
78205;SDS011;67480;48.920;12.880;2023-02-28T06:22:35;9.85;;;7.05;;
78205;SDS011;67480;48.920;12.880;2023-02-28T06:25:01;8.63;;;6.90;;
78205;SDS011;67480;48.920;12.880;2023-02-28T06:27:26;10.43;;;6.78;;
78205;SDS011;67480;48.920;12.880;2023-02-28T06:29:55;9.23;;;6.72;;
78205;SDS011;67480;48.920;12.880;2023-02-28T06:32:21;9.77;;;7.28;;
78205;SDS011;67480;48.920;12.880;2023-02-28T06:34:46;10.75;;;7.03;;
78205;SDS011;67480;48.920;12.880;2023-02-28T06:37:12;9.48;;;6.78;;
78205;SDS011;67480;48.920;12.880;2023-02-28T06:39:37;10.20;;;7.13;;
78205;SDS011;67480;48.920;12.880;2023-02-28T06:42:02;18.23;;;11.63;;
78205;SDS011;67480;48.920;12.880;2023-02-28T06:44:28;9.57;;;7.07;;
78205;SDS011;67480;48.920;12.880;2023-02-28T06:46:59;9.25;;;7.45;;
78205;SDS011;67480;48.920;12.880;2023-02-28T06:49:28;11.57;;;7.80;;
78205;SDS011;67480;48.920;12.880;2023-02-28T06:51:53;11.32;;;7.53;;
78205;SDS011;67480;48.920;12.880;2023-02-28T06:54:19;9.43;;;7.18;;
78205;SDS011;67480;48.920;12.880;2023-02-28T06:56:44;10.15;;;7.45;;
78205;SDS011;67480;48.920;12.880;2023-02-28T06:59:09;10.85;;;6.88;;
78205;SDS011;67480;48.920;12.880;2023-02-28T07:01:34;9.23;;;7.38;;
78205;SDS011;67480;48.920;12.880;2023-02-28T07:04:00;8.77;;;6.32;;
78205;SDS011;67480;48.920;12.880;2023-02-28T07:06:26;10.68;;;6.93;;
78205;SDS011;67480;48.920;12.880;2023-02-28T07:08:52;16.88;;;10.52;;
78205;SDS011;67480;48.920;12.880;2023-02-28T07:11:18;10.18;;;7.32;;
78205;SDS011;67480;48.920;12.880;2023-02-28T07:13:44;10.20;;;7.78;;
78205;SDS011;67480;48.920;12.880;2023-02-28T07:16:11;12.63;;;8.35;;
78205;SDS011;67480;48.920;12.880;2023-02-28T07:18:37;9.50;;;7.03;;
78205;SDS011;67480;48.920;12.880;2023-02-28T07:21:03;8.70;;;6.75;;
78205;SDS011;67480;48.920;12.880;2023-02-28T07:23:30;8.98;;;6.70;;
78205;SDS011;67480;48.920;12.880;2023-02-28T07:25:55;10.30;;;7.00;;
78205;SDS011;67480;48.920;12.880;2023-02-28T07:28:20;10.48;;;6.93;;
78205;SDS011;67480;48.920;12.880;2023-02-28T07:30:46;11.40;;;7.22;;
78205;SDS011;67480;48.920;12.880;2023-02-28T07:33:11;11.55;;;7.13;;
78205;SDS011;67480;48.920;12.880;2023-02-28T07:35:36;11.57;;;7.57;;
78205;SDS011;67480;48.920;12.880;2023-02-28T07:38:02;11.65;;;7.80;;
78205;SDS011;67480;48.920;12.880;2023-02-28T07:40:28;10.57;;;7.75;;
78205;SDS011;67480;48.920;12.880;2023-02-28T07:42:53;9.75;;;7.18;;
78205;SDS011;67480;48.920;12.880;2023-02-28T07:45:18;11.68;;;7.03;;
78205;SDS011;67480;48.920;12.880;2023-02-28T07:47:44;8.75;;;7.10;;
78205;SDS011;67480;48.920;12.880;2023-02-28T07:50:11;9.15;;;6.93;;
78205;SDS011;67480;48.920;12.880;2023-02-28T07:52:38;9.32;;;7.18;;
78205;SDS011;67480;48.920;12.880;2023-02-28T07:55:04;8.48;;;7.03;;
78205;SDS011;67480;48.920;12.880;2023-02-28T07:57:31;9.25;;;7.00;;
78205;SDS011;67480;48.920;12.880;2023-02-28T07:59:56;9.85;;;7.30;;
78205;SDS011;67480;48.920;12.880;2023-02-28T08:02:22;10.82;;;7.20;;
78205;SDS011;67480;48.920;12.880;2023-02-28T08:04:47;9.30;;;7.28;;
78205;SDS011;67480;48.920;12.880;2023-02-28T08:07:13;9.30;;;6.82;;
78205;SDS011;67480;48.920;12.880;2023-02-28T08:09:40;9.60;;;7.20;;
78205;SDS011;67480;48.920;12.880;2023-02-28T08:12:06;9.55;;;7.05;;
78205;SDS011;67480;48.920;12.880;2023-02-28T08:14:32;8.80;;;7.10;;
78205;SDS011;67480;48.920;12.880;2023-02-28T08:16:57;8.18;;;6.85;;
78205;SDS011;67480;48.920;12.880;2023-02-28T08:19:23;8.45;;;6.45;;
78205;SDS011;67480;48.920;12.880;2023-02-28T08:21:48;8.70;;;6.82;;
78205;SDS011;67480;48.920;12.880;2023-02-28T08:24:13;8.40;;;6.97;;
78205;SDS011;67480;48.920;12.880;2023-02-28T08:26:39;12.00;;;6.90;;
78205;SDS011;67480;48.920;12.880;2023-02-28T08:29:04;8.23;;;6.70;;
78205;SDS011;67480;48.920;12.880;2023-02-28T08:31:29;11.23;;;8.00;;
78205;SDS011;67480;48.920;12.880;2023-02-28T08:33:54;8.73;;;6.65;;
78205;SDS011;67480;48.920;12.880;2023-02-28T08:36:23;9.02;;;6.85;;
78205;SDS011;67480;48.920;12.880;2023-02-28T08:38:49;9.85;;;7.22;;
78205;SDS011;67480;48.920;12.880;2023-02-28T08:41:14;9.85;;;7.20;;
78205;SDS011;67480;48.920;12.880;2023-02-28T08:43:40;8.60;;;6.85;;
78205;SDS011;67480;48.920;12.880;2023-02-28T08:46:05;8.23;;;6.68;;
78205;SDS011;67480;48.920;12.880;2023-02-28T08:48:32;9.35;;;6.95;;
78205;SDS011;67480;48.920;12.880;2023-02-28T08:51:00;8.05;;;6.57;;
78205;SDS011;67480;48.920;12.880;2023-02-28T08:53:30;8.85;;;6.22;;
78205;SDS011;67480;48.920;12.880;2023-02-28T08:56:05;11.38;;;7.13;;
78205;SDS011;67480;48.920;12.880;2023-02-28T08:58:32;9.48;;;6.63;;
78205;SDS011;67480;48.920;12.880;2023-02-28T09:00:59;9.60;;;6.85;;
78205;SDS011;67480;48.920;12.880;2023-02-28T09:03:25;9.30;;;7.07;;
78205;SDS011;67480;48.920;12.880;2023-02-28T09:05:55;9.95;;;6.97;;
78205;SDS011;67480;48.920;12.880;2023-02-28T09:08:23;9.02;;;6.78;;
78205;SDS011;67480;48.920;12.880;2023-02-28T09:10:50;7.70;;;6.82;;
78205;SDS011;67480;48.920;12.880;2023-02-28T09:13:16;8.52;;;6.80;;
78205;SDS011;67480;48.920;12.880;2023-02-28T09:15:41;12.48;;;7.15;;
78205;SDS011;67480;48.920;12.880;2023-02-28T09:18:06;9.35;;;7.03;;
78205;SDS011;67480;48.920;12.880;2023-02-28T09:20:32;8.38;;;7.05;;
78205;SDS011;67480;48.920;12.880;2023-02-28T09:22:57;11.18;;;7.38;;
78205;SDS011;67480;48.920;12.880;2023-02-28T09:25:22;9.57;;;6.85;;
78205;SDS011;67480;48.920;12.880;2023-02-28T09:27:47;9.10;;;8.20;;
78205;SDS011;67480;48.920;12.880;2023-02-28T09:30:13;10.40;;;6.72;;
78205;SDS011;67480;48.920;12.880;2023-02-28T09:32:39;10.65;;;7.03;;
78205;SDS011;67480;48.920;12.880;2023-02-28T09:35:05;10.43;;;7.25;;
78205;SDS011;67480;48.920;12.880;2023-02-28T09:37:30;10.32;;;8.18;;
78205;SDS011;67480;48.920;12.880;2023-02-28T09:39:56;9.10;;;7.25;;
78205;SDS011;67480;48.920;12.880;2023-02-28T09:42:23;9.93;;;7.05;;
78205;SDS011;67480;48.920;12.880;2023-02-28T09:44:55;8.40;;;7.17;;
78205;SDS011;67480;48.920;12.880;2023-02-28T09:53:04;9.40;;;6.70;;
78205;SDS011;67480;48.920;12.880;2023-02-28T09:55:37;8.25;;;6.10;;
78205;SDS011;67480;48.920;12.880;2023-02-28T09:58:10;8.35;;;6.45;;
78205;SDS011;67480;48.920;12.880;2023-02-28T10:00:46;8.13;;;6.38;;
78205;SDS011;67480;48.920;12.880;2023-02-28T10:03:40;7.53;;;6.63;;
78205;SDS011;67480;48.920;12.880;2023-02-28T10:06:13;7.95;;;6.40;;
78205;SDS011;67480;48.920;12.880;2023-02-28T10:12:04;9.13;;;6.70;;
78205;SDS011;67480;48.920;12.880;2023-02-28T10:14:32;8.45;;;7.13;;
78205;SDS011;67480;48.920;12.880;2023-02-28T10:17:12;8.63;;;6.10;;
78205;SDS011;67480;48.920;12.880;2023-02-28T10:22:20;7.82;;;6.00;;
78205;SDS011;67480;48.920;12.880;2023-02-28T10:24:51;7.03;;;6.10;;
78205;SDS011;67480;48.920;12.880;2023-02-28T10:27:19;7.22;;;6.00;;
78205;SDS011;67480;48.920;12.880;2023-02-28T10:29:50;7.22;;;5.93;;
78205;SDS011;67480;48.920;12.880;2023-02-28T10:32:19;7.88;;;6.18;;
78205;SDS011;67480;48.920;12.880;2023-02-28T10:34:51;6.88;;;6.00;;
78205;SDS011;67480;48.920;12.880;2023-02-28T10:37:20;7.80;;;5.88;;
78205;SDS011;67480;48.920;12.880;2023-02-28T10:39:46;7.05;;;5.93;;
78205;SDS011;67480;48.920;12.880;2023-02-28T10:42:25;11.85;;;5.93;;
78205;SDS011;67480;48.920;12.880;2023-02-28T10:45:05;6.40;;;5.65;;
78205;SDS011;67480;48.920;12.880;2023-02-28T10:47:39;8.98;;;7.15;;
78205;SDS011;67480;48.920;12.880;2023-02-28T10:50:26;7.88;;;6.00;;
78205;SDS011;67480;48.920;12.880;2023-02-28T10:52:52;8.55;;;6.45;;
78205;SDS011;67480;48.920;12.880;2023-02-28T10:55:22;8.02;;;6.18;;
78205;SDS011;67480;48.920;12.880;2023-02-28T10:57:50;9.95;;;7.03;;
78205;SDS011;67480;48.920;12.880;2023-02-28T11:02:52;7.40;;;6.20;;
78205;SDS011;67480;48.920;12.880;2023-02-28T11:07:55;8.43;;;6.20;;
78205;SDS011;67480;48.920;12.880;2023-02-28T11:10:24;7.07;;;5.78;;
78205;SDS011;67480;48.920;12.880;2023-02-28T11:12:54;7.80;;;6.22;;
78205;SDS011;67480;48.920;12.880;2023-02-28T11:17:57;7.78;;;6.82;;
78205;SDS011;67480;48.920;12.880;2023-02-28T11:20:47;8.25;;;6.38;;
78205;SDS011;67480;48.920;12.880;2023-02-28T11:23:15;7.53;;;6.07;;
78205;SDS011;67480;48.920;12.880;2023-02-28T11:25:45;7.25;;;6.03;;
78205;SDS011;67480;48.920;12.880;2023-02-28T11:28:31;7.95;;;6.90;;
78205;SDS011;67480;48.920;12.880;2023-02-28T11:31:02;9.30;;;6.82;;
78205;SDS011;67480;48.920;12.880;2023-02-28T11:36:21;7.97;;;6.28;;
78205;SDS011;67480;48.920;12.880;2023-02-28T11:38:53;8.90;;;6.70;;
78205;SDS011;67480;48.920;12.880;2023-02-28T11:47:31;8.20;;;6.25;;
78205;SDS011;67480;48.920;12.880;2023-02-28T11:50:10;9.35;;;7.53;;
78205;SDS011;67480;48.920;12.880;2023-02-28T11:52:56;8.82;;;7.10;;
78205;SDS011;67480;48.920;12.880;2023-02-28T11:58:05;8.50;;;6.95;;
78205;SDS011;67480;48.920;12.880;2023-02-28T12:28:16;8.57;;;7.32;;
78205;SDS011;67480;48.920;12.880;2023-02-28T12:30:49;8.68;;;6.75;;
78205;SDS011;67480;48.920;12.880;2023-02-28T12:33:21;10.60;;;8.73;;
78205;SDS011;67480;48.920;12.880;2023-02-28T12:35:55;8.35;;;7.43;;
78205;SDS011;67480;48.920;12.880;2023-02-28T12:38:22;8.27;;;7.28;;
78205;SDS011;67480;48.920;12.880;2023-02-28T12:40:51;9.50;;;7.75;;
78205;SDS011;67480;48.920;12.880;2023-02-28T12:43:20;11.50;;;7.95;;
78205;SDS011;67480;48.920;12.880;2023-02-28T12:45:56;9.27;;;8.02;;
78205;SDS011;67480;48.920;12.880;2023-02-28T12:48:25;8.55;;;7.53;;
78205;SDS011;67480;48.920;12.880;2023-02-28T12:50:56;9.23;;;7.80;;
78205;SDS011;67480;48.920;12.880;2023-02-28T12:53:28;10.68;;;8.27;;
78205;SDS011;67480;48.920;12.880;2023-02-28T12:59:27;9.63;;;8.20;;
78205;SDS011;67480;48.920;12.880;2023-02-28T13:10:08;9.60;;;8.48;;
78205;SDS011;67480;48.920;12.880;2023-02-28T13:12:34;9.60;;;8.48;;
78205;SDS011;67480;48.920;12.880;2023-02-28T13:15:07;10.80;;;8.88;;
78205;SDS011;67480;48.920;12.880;2023-02-28T13:17:47;9.85;;;8.85;;
78205;SDS011;67480;48.920;12.880;2023-02-28T13:20:25;11.95;;;8.02;;
78205;SDS011;67480;48.920;12.880;2023-02-28T13:22:54;9.82;;;8.18;;
78205;SDS011;67480;48.920;12.880;2023-02-28T13:27:47;10.85;;;8.95;;
78205;SDS011;67480;48.920;12.880;2023-02-28T13:38:33;11.20;;;8.75;;
78205;SDS011;67480;48.920;12.880;2023-02-28T13:44:39;10.93;;;8.40;;
78205;SDS011;67480;48.920;12.880;2023-02-28T14:05:22;11.70;;;9.50;;
78205;SDS011;67480;48.920;12.880;2023-02-28T14:07:55;11.07;;;9.52;;
78205;SDS011;67480;48.920;12.880;2023-02-28T14:10:24;11.45;;;10.25;;
78205;SDS011;67480;48.920;12.880;2023-02-28T14:12:56;11.82;;;9.75;;
78205;SDS011;67480;48.920;12.880;2023-02-28T14:18:16;11.07;;;9.57;;
78205;SDS011;67480;48.920;12.880;2023-02-28T14:20:46;11.65;;;9.68;;
78205;SDS011;67480;48.920;12.880;2023-02-28T14:26:05;11.60;;;9.50;;
78205;SDS011;67480;48.920;12.880;2023-02-28T14:35:58;10.43;;;9.38;;
78205;SDS011;67480;48.920;12.880;2023-02-28T14:38:42;12.90;;;10.20;;
78205;SDS011;67480;48.920;12.880;2023-02-28T14:41:30;11.43;;;9.90;;
78205;SDS011;67480;48.920;12.880;2023-02-28T14:44:02;11.70;;;9.68;;
78205;SDS011;67480;48.920;12.880;2023-02-28T14:46:38;12.98;;;10.38;;
78205;SDS011;67480;48.920;12.880;2023-02-28T14:49:06;13.98;;;10.32;;
78205;SDS011;67480;48.920;12.880;2023-02-28T14:51:37;13.93;;;10.35;;
78205;SDS011;67480;48.920;12.880;2023-02-28T14:54:02;12.65;;;10.13;;
78205;SDS011;67480;48.920;12.880;2023-02-28T14:56:36;12.73;;;9.73;;
78205;SDS011;67480;48.920;12.880;2023-02-28T14:59:03;18.50;;;11.32;;
78205;SDS011;67480;48.920;12.880;2023-02-28T15:01:29;13.65;;;10.75;;
78205;SDS011;67480;48.920;12.880;2023-02-28T15:04:04;14.40;;;10.68;;
78205;SDS011;67480;48.920;12.880;2023-02-28T15:06:30;13.30;;;10.17;;
78205;SDS011;67480;48.920;12.880;2023-02-28T15:09:06;14.60;;;11.05;;
78205;SDS011;67480;48.920;12.880;2023-02-28T15:11:38;12.65;;;10.25;;
78205;SDS011;67480;48.920;12.880;2023-02-28T15:14:05;13.30;;;11.38;;
78205;SDS011;67480;48.920;12.880;2023-02-28T15:16:34;12.70;;;10.50;;
78205;SDS011;67480;48.920;12.880;2023-02-28T15:21:55;12.38;;;10.27;;
78205;SDS011;67480;48.920;12.880;2023-02-28T15:24:35;13.63;;;10.75;;
78205;SDS011;67480;48.920;12.880;2023-02-28T15:27:03;16.02;;;11.98;;
78205;SDS011;67480;48.920;12.880;2023-02-28T15:29:33;15.98;;;11.80;;
78205;SDS011;67480;48.920;12.880;2023-02-28T15:32:25;15.13;;;11.07;;
78205;SDS011;67480;48.920;12.880;2023-02-28T15:34:54;14.55;;;11.48;;
78205;SDS011;67480;48.920;12.880;2023-02-28T15:39:52;14.93;;;12.48;;
78205;SDS011;67480;48.920;12.880;2023-02-28T15:42:19;15.50;;;11.88;;
78205;SDS011;67480;48.920;12.880;2023-02-28T15:44:46;18.55;;;14.32;;
78205;SDS011;67480;48.920;12.880;2023-02-28T15:49:47;18.45;;;12.48;;
78205;SDS011;67480;48.920;12.880;2023-02-28T15:52:16;15.00;;;12.30;;
78205;SDS011;67480;48.920;12.880;2023-02-28T15:54:44;14.85;;;11.93;;
78205;SDS011;67480;48.920;12.880;2023-02-28T15:57:13;16.85;;;12.52;;
78205;SDS011;67480;48.920;12.880;2023-02-28T15:59:48;18.92;;;13.45;;
78205;SDS011;67480;48.920;12.880;2023-02-28T16:02:20;18.05;;;12.95;;
78205;SDS011;67480;48.920;12.880;2023-02-28T16:10:02;20.67;;;13.65;;
78205;SDS011;67480;48.920;12.880;2023-02-28T16:12:29;17.33;;;12.65;;
78205;SDS011;67480;48.920;12.880;2023-02-28T16:14:57;20.08;;;13.82;;
78205;SDS011;67480;48.920;12.880;2023-02-28T16:17:26;19.98;;;13.70;;
78205;SDS011;67480;48.920;12.880;2023-02-28T16:19:54;20.02;;;13.35;;
78205;SDS011;67480;48.920;12.880;2023-02-28T16:22:20;19.13;;;13.18;;
78205;SDS011;67480;48.920;12.880;2023-02-28T16:24:46;18.42;;;13.88;;
78205;SDS011;67480;48.920;12.880;2023-02-28T16:27:15;18.20;;;13.32;;
78205;SDS011;67480;48.920;12.880;2023-02-28T16:30:01;19.52;;;13.73;;
78205;SDS011;67480;48.920;12.880;2023-02-28T16:32:26;17.65;;;13.85;;
78205;SDS011;67480;48.920;12.880;2023-02-28T16:34:52;17.98;;;13.40;;
78205;SDS011;67480;48.920;12.880;2023-02-28T16:37:18;20.92;;;14.75;;
78205;SDS011;67480;48.920;12.880;2023-02-28T16:39:44;21.88;;;15.32;;
78205;SDS011;67480;48.920;12.880;2023-02-28T16:42:19;19.75;;;14.52;;
78205;SDS011;67480;48.920;12.880;2023-02-28T16:44:47;20.38;;;15.07;;
78205;SDS011;67480;48.920;12.880;2023-02-28T16:47:13;21.02;;;15.32;;
78205;SDS011;67480;48.920;12.880;2023-02-28T16:49:39;21.98;;;14.77;;
78205;SDS011;67480;48.920;12.880;2023-02-28T16:52:07;24.75;;;15.80;;
78205;SDS011;67480;48.920;12.880;2023-02-28T16:54:32;21.38;;;15.23;;
78205;SDS011;67480;48.920;12.880;2023-02-28T16:56:58;23.52;;;14.88;;
78205;SDS011;67480;48.920;12.880;2023-02-28T16:59:24;21.08;;;14.52;;
78205;SDS011;67480;48.920;12.880;2023-02-28T17:01:52;23.05;;;15.60;;
78205;SDS011;67480;48.920;12.880;2023-02-28T17:04:18;20.90;;;14.30;;
78205;SDS011;67480;48.920;12.880;2023-02-28T17:06:44;23.98;;;14.80;;
78205;SDS011;67480;48.920;12.880;2023-02-28T17:09:16;21.73;;;14.65;;
78205;SDS011;67480;48.920;12.880;2023-02-28T17:11:44;23.00;;;14.70;;
78205;SDS011;67480;48.920;12.880;2023-02-28T17:14:10;22.02;;;14.75;;
78205;SDS011;67480;48.920;12.880;2023-02-28T17:16:36;21.17;;;14.43;;
78205;SDS011;67480;48.920;12.880;2023-02-28T17:19:05;26.83;;;17.13;;
78205;SDS011;67480;48.920;12.880;2023-02-28T17:21:32;40.00;;;26.63;;
78205;SDS011;67480;48.920;12.880;2023-02-28T17:23:59;22.50;;;15.77;;